createdAt,value
2019-03-13T00:01:08.420Z,44.30
2019-03-13T00:03:35.183Z,44.40
2019-03-13T00:06:01.960Z,45.00
2019-03-13T00:08:28.662Z,44.70
2019-03-13T00:10:54.955Z,45.40
2019-03-13T00:13:21.439Z,45.10
2019-03-13T00:15:49.714Z,45.00
2019-03-13T00:18:16.305Z,45.20
2019-03-13T00:20:42.696Z,47.20
2019-03-13T00:23:08.962Z,45.70
2019-03-13T00:25:35.351Z,45.40
2019-03-13T00:28:01.714Z,45.50
2019-03-13T00:30:28.098Z,45.40
2019-03-13T00:32:54.461Z,45.40
2019-03-13T00:35:21.123Z,45.20
2019-03-13T00:37:47.427Z,45.30
2019-03-13T00:40:13.907Z,45.30
2019-03-13T00:42:40.294Z,45.10
2019-03-13T00:45:09.187Z,45.30
2019-03-13T00:47:35.907Z,45.20
2019-03-13T00:50:04.486Z,45.10
2019-03-13T00:52:30.863Z,45.00
2019-03-13T00:54:57.234Z,45.00
2019-03-13T00:57:23.617Z,45.20
2019-03-13T00:59:50.224Z,45.00
2019-03-13T01:02:18.425Z,44.90
2019-03-13T01:04:47.695Z,45.00
2019-03-13T01:07:15.303Z,44.90
2019-03-13T01:09:41.691Z,44.80
2019-03-13T01:12:08.082Z,44.90
2019-03-13T01:14:34.451Z,44.90
2019-03-13T01:17:01.023Z,45.00
2019-03-13T01:19:27.515Z,44.90
2019-03-13T01:21:53.891Z,45.00
2019-03-13T01:24:20.291Z,45.00
2019-03-13T01:26:46.564Z,45.00
2019-03-13T01:29:13.155Z,45.10
2019-03-13T01:31:47.269Z,45.10
2019-03-13T01:34:21.573Z,45.10
2019-03-13T01:36:47.844Z,45.30
2019-03-13T01:39:14.156Z,45.30
2019-03-13T01:41:40.691Z,47.40
2019-03-13T01:44:07.326Z,45.80
2019-03-13T01:46:33.592Z,45.60
2019-03-13T01:48:59.883Z,45.50
2019-03-13T01:51:26.246Z,45.40
2019-03-13T01:53:52.652Z,45.40
2019-03-13T01:56:19.191Z,45.50
2019-03-13T01:58:45.625Z,45.30
2019-03-13T02:01:12.005Z,45.50
2019-03-13T02:03:38.378Z,45.30
2019-03-13T02:06:04.876Z,45.30
2019-03-13T02:08:31.266Z,45.20
2019-03-13T02:10:57.554Z,45.60
2019-03-13T02:13:24.023Z,45.30
2019-03-13T02:15:50.654Z,45.30
2019-03-13T02:18:16.918Z,45.10
2019-03-13T02:20:43.214Z,45.20
2019-03-13T02:23:09.684Z,45.50
2019-03-13T02:25:36.080Z,45.70
2019-03-13T02:28:02.442Z,45.20
2019-03-13T02:30:30.716Z,45.30
2019-03-13T02:32:57.341Z,45.80
2019-03-13T02:35:23.833Z,45.50
2019-03-13T02:37:50.288Z,45.70
2019-03-13T02:40:16.934Z,45.30
2019-03-13T02:42:43.232Z,45.30
2019-03-13T02:45:10.907Z,45.30
2019-03-13T02:47:37.305Z,45.40
2019-03-13T02:50:12.663Z,45.20
2019-03-13T02:52:39.134Z,45.20
2019-03-13T02:55:07.603Z,45.40
2019-03-13T02:57:34.159Z,45.30
2019-03-13T03:00:00.823Z,45.20
2019-03-13T03:02:31.784Z,45.20
2019-03-13T03:04:58.167Z,45.10
2019-03-13T03:07:24.651Z,45.80
2019-03-13T03:09:50.937Z,45.50
2019-03-13T03:12:17.303Z,45.70
2019-03-13T03:15:01.636Z,45.60
2019-03-13T03:17:28.173Z,45.80
2019-03-13T03:19:56.028Z,45.40
2019-03-13T03:22:22.389Z,45.50
2019-03-13T03:24:48.679Z,46.00
2019-03-13T03:27:14.957Z,45.30
2019-03-13T03:29:41.334Z,45.30
2019-03-13T03:32:07.617Z,45.80
2019-03-13T03:34:34.012Z,45.60
2019-03-13T03:37:00.372Z,45.70
2019-03-13T03:39:26.705Z,45.50
2019-03-13T03:41:53.102Z,45.70
2019-03-13T03:44:19.748Z,45.90
2019-03-13T03:46:47.527Z,45.60
2019-03-13T03:49:13.809Z,45.40
2019-03-13T03:51:40.097Z,45.50
2019-03-13T03:54:06.939Z,45.30
2019-03-13T03:56:33.654Z,45.30
2019-03-13T03:59:00.039Z,45.70
2019-03-13T04:01:26.730Z,45.50
2019-03-13T04:03:53.208Z,45.40
2019-03-13T04:06:19.800Z,45.80
2019-03-13T04:08:46.062Z,45.60
2019-03-13T04:11:12.763Z,45.90
2019-03-13T04:13:39.035Z,45.90
2019-03-13T04:16:05.361Z,45.90
2019-03-13T04:18:31.694Z,45.80
2019-03-13T04:20:58.070Z,45.70
2019-03-13T04:23:24.339Z,45.70
2019-03-13T04:25:50.740Z,45.80
2019-03-13T04:28:17.107Z,45.90
2019-03-13T04:30:44.036Z,45.80
2019-03-13T04:33:10.696Z,45.80
2019-03-13T04:35:37.058Z,45.60
2019-03-13T04:38:03.347Z,45.60
2019-03-13T04:40:29.654Z,45.60
2019-03-13T04:42:56.340Z,46.00
2019-03-13T04:45:23.043Z,45.70
2019-03-13T04:47:49.682Z,45.60
2019-03-13T04:50:16.051Z,45.70
2019-03-13T04:52:42.959Z,45.80
2019-03-13T04:55:11.031Z,46.10
2019-03-13T04:57:38.691Z,46.20
2019-03-13T05:00:11.239Z,46.00
2019-03-13T05:02:37.898Z,46.50
2019-03-13T05:05:04.767Z,46.00
2019-03-13T05:07:31.071Z,46.00
2019-03-13T05:09:57.334Z,46.40
2019-03-13T05:12:23.639Z,46.40
2019-03-13T05:14:50.409Z,46.10
2019-03-13T05:17:16.778Z,46.20
2019-03-13T05:19:43.351Z,46.40
2019-03-13T05:22:09.619Z,46.20
2019-03-13T05:24:36.228Z,46.30
2019-03-13T05:27:02.798Z,46.70
2019-03-13T05:29:29.158Z,46.30
2019-03-13T05:31:55.431Z,46.30
2019-03-13T05:34:22.158Z,46.40
2019-03-13T05:36:48.454Z,46.30
2019-03-13T05:39:14.842Z,46.70
2019-03-13T05:41:41.237Z,46.40
2019-03-13T05:44:07.512Z,47.00
2019-03-13T05:46:33.794Z,46.30
2019-03-13T05:49:00.367Z,46.90
2019-03-13T05:51:26.815Z,46.30
2019-03-13T05:53:53.523Z,46.20
2019-03-13T05:56:19.802Z,46.30
2019-03-13T05:58:46.171Z,46.90
2019-03-13T06:01:12.605Z,46.50
2019-03-13T06:03:40.486Z,46.30
2019-03-13T06:06:06.760Z,46.40
2019-03-13T06:08:33.481Z,46.30
2019-03-13T06:11:00.202Z,46.60
2019-03-13T06:13:26.628Z,46.40
2019-03-13T06:15:52.902Z,46.60
2019-03-13T06:18:19.314Z,46.40
2019-03-13T06:20:46.022Z,46.70
2019-03-13T06:23:12.426Z,46.70
2019-03-13T06:25:38.777Z,46.50
2019-03-13T06:28:05.075Z,46.40
2019-03-13T06:30:31.703Z,46.60
2019-03-13T06:32:58.338Z,46.40
2019-03-13T06:35:24.690Z,46.60
2019-03-13T06:37:51.024Z,46.40
2019-03-13T06:40:18.899Z,46.60
2019-03-13T06:42:45.305Z,46.40
2019-03-13T06:45:13.969Z,46.30
2019-03-13T06:47:40.456Z,47.00
2019-03-13T06:50:10.516Z,46.30
2019-03-13T06:52:36.932Z,46.50
2019-03-13T06:55:04.281Z,46.40
2019-03-13T06:57:30.572Z,46.40
2019-03-13T06:59:59.106Z,46.30
2019-03-13T07:02:27.715Z,46.40
2019-03-13T07:04:58.670Z,46.20
2019-03-13T07:07:29.948Z,46.30
2019-03-13T07:09:58.307Z,46.60
2019-03-13T07:12:29.388Z,46.10
2019-03-13T07:15:14.625Z,46.10
2019-03-13T07:17:48.826Z,46.10
2019-03-13T07:20:26.284Z,46.10
2019-03-13T07:22:54.782Z,45.90
2019-03-13T07:25:23.255Z,45.90
2019-03-13T07:27:57.710Z,45.90
2019-03-13T07:30:38.101Z,46.00
2019-03-13T07:33:09.686Z,46.10
2019-03-13T07:35:50.248Z,46.20
2019-03-13T07:38:21.625Z,46.00
2019-03-13T07:40:59.090Z,45.90
2019-03-13T07:43:33.630Z,45.90
2019-03-13T07:46:14.119Z,45.80
2019-03-13T07:48:42.514Z,45.80
2019-03-13T07:51:13.812Z,46.30
2019-03-13T07:53:45.213Z,45.80
2019-03-13T07:56:30.310Z,45.80
2019-03-13T07:58:58.839Z,45.80
2019-03-13T08:01:36.366Z,45.80
2019-03-13T08:04:07.498Z,45.80
2019-03-13T08:06:47.951Z,45.80
2019-03-13T08:09:16.142Z,45.70
2019-03-13T08:11:56.494Z,45.70
2019-03-13T08:14:27.713Z,45.60
2019-03-13T08:17:12.569Z,45.70
2019-03-13T08:19:55.822Z,45.60
2019-03-13T08:22:23.986Z,45.80
2019-03-13T08:24:58.434Z,46.50
2019-03-13T08:27:43.491Z,45.90
2019-03-13T08:30:21.550Z,45.90
2019-03-13T08:32:58.521Z,45.90
2019-03-13T08:35:35.868Z,46.10
2019-03-13T08:38:04.244Z,46.10
2019-03-13T08:40:49.801Z,46.20
2019-03-13T08:43:20.939Z,46.70
2019-03-13T08:46:04.584Z,46.70
2019-03-13T08:48:38.967Z,46.70
2019-03-13T08:51:19.429Z,46.60
2019-03-13T08:53:47.707Z,46.70
2019-03-13T08:56:16.009Z,46.70
2019-03-13T08:58:53.591Z,46.80
2019-03-13T09:01:22.178Z,46.60
2019-03-13T09:04:07.073Z,46.50
2019-03-13T09:06:44.340Z,46.60
2019-03-13T09:09:12.623Z,46.60
2019-03-13T09:11:50.258Z,46.40
2019-03-13T09:14:27.414Z,46.70
2019-03-13T09:17:08.353Z,46.60
2019-03-13T09:19:53.739Z,46.60
2019-03-13T09:22:37.499Z,46.60
2019-03-13T09:25:17.450Z,46.90
2019-03-13T09:27:48.727Z,46.70
2019-03-13T09:30:17.209Z,47.00
2019-03-13T09:32:51.601Z,47.00
2019-03-13T09:35:19.854Z,46.90
2019-03-13T09:37:54.282Z,46.60
2019-03-13T09:40:25.530Z,46.80
2019-03-13T09:43:02.900Z,46.90
2019-03-13T09:45:31.723Z,46.80
2019-03-13T09:48:15.101Z,46.90
2019-03-13T09:50:46.485Z,47.20
2019-03-13T09:53:18.253Z,48.00
2019-03-13T09:55:49.639Z,47.20
2019-03-13T09:58:28.154Z,47.80
2019-03-13T10:01:02.275Z,47.80
2019-03-13T10:03:36.567Z,48.90
2019-03-13T10:06:05.004Z,48.90
2019-03-13T10:08:39.625Z,48.80
2019-03-13T10:11:14.038Z,49.10
2019-03-13T10:13:42.344Z,48.50
2019-03-13T10:16:19.683Z,48.70
2019-03-13T10:18:53.680Z,49.50
2019-03-13T10:21:24.778Z,49.20
2019-03-13T10:23:53.089Z,48.80
2019-03-13T10:26:21.358Z,48.80
2019-03-13T10:29:04.971Z,48.90
2019-03-13T10:31:33.349Z,49.50
2019-03-13T10:34:20.079Z,49.30
2019-03-13T10:37:03.752Z,49.40
2019-03-13T10:39:44.461Z,49.40
2019-03-13T10:42:15.715Z,50.00
2019-03-13T10:44:44.223Z,49.50
2019-03-13T10:47:21.795Z,49.50
2019-03-13T10:50:07.074Z,49.30
2019-03-13T10:52:35.455Z,49.70
2019-03-13T10:55:09.422Z,49.60
2019-03-13T10:57:49.690Z,50.20
2019-03-13T11:00:35.974Z,49.70
2019-03-13T11:03:22.322Z,49.60
2019-03-13T11:05:50.875Z,50.10
2019-03-13T11:08:19.691Z,49.90
2019-03-13T11:10:57.308Z,49.70
2019-03-13T11:13:25.767Z,49.60
2019-03-13T11:15:57.067Z,49.70
2019-03-13T11:18:28.469Z,49.80
2019-03-13T11:21:13.573Z,49.50
2019-03-13T11:23:44.723Z,49.60
2019-03-13T11:26:18.840Z,50.10
2019-03-13T11:28:47.396Z,50.00
2019-03-13T11:31:33.677Z,49.90
2019-03-13T11:34:20.050Z,49.90
2019-03-13T11:36:51.072Z,49.80
2019-03-13T11:39:19.439Z,49.30
2019-03-13T11:41:47.715Z,49.40
2019-03-13T11:44:34.114Z,49.10
2019-03-13T11:47:20.240Z,49.00
2019-03-13T11:49:57.994Z,48.70
2019-03-13T11:52:35.884Z,48.50
2019-03-13T11:55:26.397Z,48.40
2019-03-13T11:57:54.615Z,48.40
2019-03-13T12:00:28.759Z,48.40
2019-03-13T12:03:02.878Z,48.40
2019-03-13T12:05:42.737Z,48.50
2019-03-13T12:08:27.834Z,48.30
2019-03-13T12:11:12.882Z,48.40
2019-03-13T12:13:50.356Z,49.00
2019-03-13T12:16:21.466Z,49.10
2019-03-13T12:18:58.879Z,49.30
2019-03-13T12:21:29.772Z,49.20
2019-03-13T12:24:07.342Z,49.60
2019-03-13T12:26:45.730Z,49.70
2019-03-13T12:29:16.782Z,49.80
2019-03-13T12:32:03.286Z,49.70
2019-03-13T12:34:37.510Z,49.50
2019-03-13T12:37:05.782Z,50.10
2019-03-13T12:39:33.977Z,49.60
2019-03-13T12:42:02.375Z,50.10
2019-03-13T12:44:47.611Z,49.80
2019-03-13T12:47:15.913Z,50.30
2019-03-13T12:49:56.232Z,50.50
2019-03-13T12:52:29.331Z,50.30
2019-03-13T12:54:57.639Z,50.90
2019-03-13T12:57:42.645Z,50.50
2019-03-13T13:00:20.097Z,50.60
2019-03-13T13:03:06.251Z,50.50
2019-03-13T13:05:34.450Z,50.70
2019-03-13T13:08:05.494Z,50.30
2019-03-13T13:10:45.924Z,50.10
2019-03-13T13:13:31.014Z,50.30
2019-03-13T13:16:02.574Z,50.70
2019-03-13T13:18:47.567Z,50.40
2019-03-13T13:21:14.158Z,50.40
2019-03-13T13:23:40.626Z,50.60
2019-03-13T13:26:07.354Z,50.70
2019-03-13T13:28:34.108Z,50.80
2019-03-13T13:31:00.655Z,50.70
2019-03-13T13:33:27.036Z,50.30
2019-03-13T13:35:53.315Z,50.20
2019-03-13T13:38:19.916Z,50.20
2019-03-13T13:40:46.280Z,50.10
2019-03-13T13:43:12.579Z,50.10
2019-03-13T13:45:42.285Z,49.60
2019-03-13T13:48:08.688Z,49.90
2019-03-13T13:50:35.073Z,49.90
2019-03-13T13:53:01.386Z,50.10
2019-03-13T13:55:28.021Z,49.90
2019-03-13T13:57:54.496Z,49.80
2019-03-13T14:00:20.772Z,49.90
2019-03-13T14:02:47.491Z,50.00
2019-03-13T14:05:13.860Z,49.80
2019-03-13T14:07:40.218Z,49.60
2019-03-13T14:10:08.512Z,49.50
2019-03-13T14:12:35.122Z,49.50
2019-03-13T14:15:02.223Z,49.70
2019-03-13T14:17:28.891Z,49.60
2019-03-13T14:19:55.189Z,49.40
2019-03-13T14:22:21.494Z,49.40
2019-03-13T14:24:47.883Z,49.80
2019-03-13T14:27:15.738Z,49.90
2019-03-13T14:29:42.130Z,49.90
2019-03-13T14:32:08.554Z,50.70
2019-03-13T14:34:34.935Z,51.00
2019-03-13T14:37:01.216Z,50.30
2019-03-13T14:39:27.706Z,50.10
2019-03-13T14:41:53.970Z,50.20
2019-03-13T14:44:20.366Z,50.10
2019-03-13T14:46:46.629Z,50.20
2019-03-13T14:49:13.141Z,50.40
2019-03-13T14:51:39.511Z,51.30
2019-03-13T14:54:06.075Z,51.50
2019-03-13T14:56:32.652Z,51.80
2019-03-13T14:58:59.038Z,52.10
2019-03-13T15:01:25.723Z,51.70
2019-03-13T15:03:52.013Z,51.80
2019-03-13T15:06:18.588Z,51.70
2019-03-13T15:08:44.977Z,51.80
2019-03-13T15:11:11.260Z,52.00
2019-03-13T15:13:37.675Z,51.90
2019-03-13T15:16:04.035Z,51.90
2019-03-13T15:18:30.415Z,52.00
2019-03-13T15:20:57.038Z,52.00
2019-03-13T15:23:23.840Z,52.50
2019-03-13T15:25:50.531Z,52.80
2019-03-13T15:28:17.633Z,53.30
2019-03-13T15:30:44.359Z,52.90
2019-03-13T15:33:10.618Z,52.90
2019-03-13T15:35:36.927Z,52.70
2019-03-13T15:38:03.390Z,52.50
2019-03-13T15:40:29.679Z,52.70
2019-03-13T15:42:56.051Z,52.40
2019-03-13T15:45:24.267Z,52.90
2019-03-13T15:47:50.755Z,52.60
2019-03-13T15:50:17.698Z,52.20
2019-03-13T15:52:44.535Z,52.00
2019-03-13T15:55:12.810Z,52.10
2019-03-13T15:57:39.276Z,52.10
2019-03-13T16:00:09.467Z,52.60
2019-03-13T16:02:35.840Z,52.60
2019-03-13T16:05:04.455Z,52.20
2019-03-13T16:07:30.843Z,52.20
2019-03-13T16:09:57.239Z,52.10
2019-03-13T16:12:23.863Z,52.30
2019-03-13T16:14:50.529Z,52.60
2019-03-13T16:17:16.894Z,52.50
2019-03-13T16:19:43.190Z,52.20
2019-03-13T16:22:10.142Z,52.30
2019-03-13T16:24:36.447Z,52.40
2019-03-13T16:27:02.932Z,52.10
2019-03-13T16:29:30.939Z,52.20
2019-03-13T16:31:57.615Z,52.30
2019-03-13T16:34:23.986Z,52.20
2019-03-13T16:36:50.558Z,52.30
2019-03-13T16:39:16.923Z,52.40
2019-03-13T16:41:43.206Z,52.50
2019-03-13T16:44:09.486Z,52.50
2019-03-13T16:46:36.059Z,53.10
2019-03-13T16:49:03.156Z,52.70
2019-03-13T16:51:29.639Z,52.20
2019-03-13T16:53:56.833Z,52.10
2019-03-13T16:56:23.327Z,52.20
2019-03-13T16:58:49.686Z,52.20
2019-03-13T17:01:15.992Z,52.70
2019-03-13T17:03:42.452Z,52.90
2019-03-13T17:06:09.014Z,53.00
2019-03-13T17:08:35.627Z,53.40
2019-03-13T17:11:02.002Z,54.00
2019-03-13T17:13:29.690Z,53.40
2019-03-13T17:15:56.239Z,53.30
2019-03-13T17:18:22.558Z,53.00
2019-03-13T17:20:49.184Z,53.40
2019-03-13T17:23:15.583Z,54.00
2019-03-13T17:25:42.295Z,53.80
2019-03-13T17:28:08.596Z,53.40
2019-03-13T17:30:34.958Z,53.90
2019-03-13T17:33:01.554Z,54.00
2019-03-13T17:35:29.305Z,53.30
2019-03-13T17:37:56.081Z,53.30
2019-03-13T17:40:24.874Z,53.20
2019-03-13T17:42:51.415Z,53.20
2019-03-13T17:45:19.798Z,52.80
2019-03-13T17:47:46.080Z,52.90
2019-03-13T17:50:16.283Z,53.00
2019-03-13T17:52:43.098Z,52.80
2019-03-13T17:55:11.991Z,52.70
2019-03-13T17:57:39.496Z,52.90
2019-03-13T18:00:22.471Z,53.00
2019-03-13T18:02:48.926Z,53.10
2019-03-13T18:05:15.951Z,53.00
2019-03-13T18:07:42.418Z,53.10
2019-03-13T18:10:19.802Z,53.10
2019-03-13T18:12:46.383Z,53.10
2019-03-13T18:15:14.075Z,53.10
2019-03-13T18:17:40.443Z,53.10
2019-03-13T18:20:10.340Z,53.20
2019-03-13T18:22:36.982Z,53.50
2019-03-13T18:25:04.967Z,53.40
2019-03-13T18:27:31.371Z,53.20
2019-03-13T18:29:58.002Z,53.20
2019-03-13T18:32:24.389Z,53.20
2019-03-13T18:34:50.674Z,53.70
2019-03-13T18:37:17.336Z,53.50
2019-03-13T18:39:43.637Z,53.20
2019-03-13T18:42:10.474Z,53.40
2019-03-13T18:44:38.081Z,53.60
2019-03-13T18:47:05.761Z,53.40
2019-03-13T18:49:32.065Z,53.40
2019-03-13T18:51:58.458Z,54.10
2019-03-13T18:54:25.210Z,53.90
2019-03-13T18:56:51.729Z,53.90
2019-03-13T18:59:18.587Z,53.90
2019-03-13T19:01:45.155Z,54.00
2019-03-13T19:04:11.760Z,54.00
2019-03-13T19:06:38.708Z,54.50
2019-03-13T19:09:05.876Z,54.30
2019-03-13T19:11:34.402Z,53.90
2019-03-13T19:14:01.175Z,54.00
2019-03-13T19:16:27.839Z,54.30
2019-03-13T19:18:54.147Z,54.10
2019-03-13T19:21:20.882Z,54.00
2019-03-13T19:23:47.590Z,53.80
2019-03-13T19:26:14.211Z,54.10
2019-03-13T19:28:40.844Z,54.90
2019-03-13T19:31:07.730Z,54.10
2019-03-13T19:33:34.063Z,54.20
2019-03-13T19:36:00.451Z,54.30
2019-03-13T19:38:27.263Z,54.90
2019-03-13T19:40:53.783Z,55.70
2019-03-13T19:43:20.259Z,55.60
2019-03-13T19:45:47.060Z,55.60
2019-03-13T19:48:13.629Z,55.90
2019-03-13T19:50:41.244Z,55.10
2019-03-13T19:53:08.117Z,55.10
2019-03-13T19:55:34.794Z,55.60
2019-03-13T19:58:01.596Z,56.10
2019-03-13T20:00:29.207Z,55.90
2019-03-13T20:03:07.053Z,55.90
2019-03-13T20:05:44.704Z,55.70
2019-03-13T20:08:01.902Z,55.60
2019-03-13T20:10:29.956Z,55.90
2019-03-13T20:12:56.729Z,57.50
2019-03-13T20:15:25.030Z,56.70
2019-03-13T20:17:51.703Z,57.90
2019-03-13T20:20:20.081Z,57.10
2019-03-13T20:22:48.447Z,56.40
2019-03-13T20:25:17.621Z,56.60
2019-03-13T20:27:44.392Z,56.20
2019-03-13T20:30:14.966Z,56.40
2019-03-13T20:32:42.368Z,56.20
2019-03-13T20:35:08.946Z,56.00
2019-03-13T20:37:35.661Z,56.00
2019-03-13T20:40:05.467Z,56.30
2019-03-13T20:42:32.846Z,56.30
2019-03-13T20:44:59.245Z,56.20
2019-03-13T20:47:25.960Z,56.00
2019-03-13T20:49:52.429Z,55.90
2019-03-13T20:52:18.798Z,56.20
2019-03-13T20:54:45.094Z,56.80
2019-03-13T20:57:11.552Z,56.20
2019-03-13T20:59:37.987Z,56.20
2019-03-13T21:02:04.994Z,56.10
2019-03-13T21:04:31.753Z,56.20
2019-03-13T21:06:58.304Z,56.30
2019-03-13T21:09:24.718Z,56.30
2019-03-13T21:11:51.097Z,56.40
2019-03-13T21:14:17.702Z,56.40
2019-03-13T21:16:43.978Z,56.40
2019-03-13T21:19:10.255Z,56.40
2019-03-13T21:21:39.887Z,56.80
2019-03-13T21:24:05.492Z,56.40
2019-03-13T21:26:31.777Z,56.60
2019-03-13T21:28:58.148Z,56.70
2019-03-13T21:31:24.537Z,56.80
2019-03-13T21:33:50.923Z,56.50
2019-03-13T21:36:17.246Z,56.60
2019-03-13T21:38:43.619Z,56.60
2019-03-13T21:41:09.914Z,56.60
2019-03-13T21:43:36.284Z,57.00
2019-03-13T21:46:02.897Z,56.80
2019-03-13T21:48:29.263Z,56.80
2019-03-13T21:50:55.819Z,57.00
2019-03-13T21:53:22.111Z,56.80
2019-03-13T21:55:48.479Z,56.70
2019-03-13T21:58:14.765Z,56.60
2019-03-13T22:00:41.225Z,56.60
2019-03-13T22:03:07.634Z,56.70
2019-03-13T22:05:33.907Z,56.70
2019-03-13T22:08:00.478Z,56.60
2019-03-13T22:10:26.942Z,56.60
2019-03-13T22:12:53.363Z,56.50
2019-03-13T22:15:20.823Z,56.40
2019-03-13T22:17:47.421Z,56.30
2019-03-13T22:20:18.008Z,56.20
2019-03-13T22:22:45.120Z,56.60
2019-03-13T22:25:16.535Z,56.10
2019-03-13T22:27:43.386Z,56.20
2019-03-13T22:30:23.617Z,56.70
2019-03-13T22:32:50.742Z,56.40
2019-03-13T22:35:17.754Z,56.60
2019-03-13T22:37:44.477Z,56.30
2019-03-13T22:40:12.749Z,56.30
2019-03-13T22:42:39.402Z,56.30
2019-03-13T22:45:09.424Z,56.20
2019-03-13T22:47:42.682Z,56.10
2019-03-13T22:50:08.135Z,56.10
2019-03-13T22:52:34.611Z,56.00
2019-03-13T22:55:01.167Z,56.40
2019-03-13T22:57:27.538Z,55.90
2019-03-13T22:59:54.170Z,56.00
2019-03-13T23:02:20.542Z,55.80
2019-03-13T23:04:46.962Z,55.60
2019-03-13T23:07:13.327Z,55.70
2019-03-13T23:09:39.695Z,55.60
2019-03-13T23:12:06.262Z,55.50
2019-03-13T23:14:32.823Z,55.50
2019-03-13T23:16:59.223Z,55.60
2019-03-13T23:19:25.608Z,55.60
2019-03-13T23:21:52.259Z,55.70
2019-03-13T23:24:18.799Z,55.70
2019-03-13T23:26:45.557Z,55.80
2019-03-13T23:29:12.014Z,55.80
2019-03-13T23:31:38.283Z,55.80
2019-03-13T23:34:04.810Z,55.80
2019-03-13T23:36:31.203Z,55.80
2019-03-13T23:38:57.807Z,56.30
2019-03-13T23:41:24.078Z,56.20
2019-03-13T23:43:50.475Z,56.00
2019-03-13T23:46:17.103Z,56.00
2019-03-13T23:48:43.751Z,55.90
2019-03-13T23:51:10.379Z,55.80
2019-03-13T23:53:36.671Z,55.80
2019-03-13T23:56:03.043Z,55.90
2019-03-13T23:58:29.807Z,55.90
